Time;durP1;ratioP1;P1;durP2;ratioP2;P2;SDS_P1;SDS_P2;PMS_P1;PMS_P2;Temp;Humidity;BMP_temperature;BMP_pressure;BME280_temperature;BME280_humidity;BME280_pressure;Samples;Min_cycle;Max_cycle;Signal;HPM_P1;HPM_P2
2022/01/19 00:00:44;;;;;;;4.95;2.40;;;;;;;-1.48;50.87;97601.38;5114064;28;20032;-63
2022/01/19 00:03:11;;;;;;;5.07;1.95;;;;;;;-1.43;50.80;97622.91;5114001;28;20074;-63
2022/01/19 00:05:37;;;;;;;6.68;2.33;;;;;;;-1.46;50.96;97633.09;5113999;28;20023;-63
2022/01/19 00:08:02;;;;;;;9.07;1.92;;;;;;;-1.46;51.05;97627.97;5114022;28;20034;-62
2022/01/19 00:10:28;;;;;;;8.88;2.45;;;;;;;-1.56;51.27;97637.09;5114057;28;20103;-63
2022/01/19 00:12:58;;;;;;;5.95;2.50;;;;;;;-1.53;51.16;97647.44;5113836;28;20022;-63
2022/01/19 00:15:26;;;;;;;5.13;2.03;;;;;;;-1.46;50.85;97647.63;5113841;28;20031;-62
2022/01/19 00:17:56;;;;;;;4.45;2.05;;;;;;;-1.49;51.09;97656.13;5113758;28;20023;-63
2022/01/19 00:20:28;;;;;;;5.30;2.38;;;;;;;-1.46;51.16;97661.34;5113544;28;20399;-62
2022/01/19 00:22:54;;;;;;;6.15;2.67;;;;;;;-1.54;51.00;97663.69;5113726;28;20027;-63
2022/01/19 00:25:20;;;;;;;15.13;6.88;;;;;;;-1.57;51.36;97645.63;5113713;28;20028;-62
2022/01/19 00:27:46;;;;;;;5.63;2.78;;;;;;;-1.56;51.16;97662.75;5113670;28;20103;-62
2022/01/19 00:30:11;;;;;;;4.72;2.25;;;;;;;-1.66;51.38;97665.91;5113611;28;20024;-63
2022/01/19 00:32:37;;;;;;;6.15;2.22;;;;;;;-1.62;51.57;97654.91;5113608;28;20016;-63
2022/01/19 00:35:04;;;;;;;10.02;2.58;;;;;;;-1.62;51.84;97660.06;5113560;28;20112;-62
2022/01/19 00:37:30;;;;;;;3.53;1.95;;;;;;;-1.72;51.34;97656.34;5113646;28;20020;-63
2022/01/19 00:39:56;;;;;;;7.60;1.98;;;;;;;-1.80;51.99;97658.69;5113488;28;20024;-62
2022/01/19 00:42:21;;;;;;;4.72;2.25;;;;;;;-1.72;51.79;97664.03;5113493;28;20465;-63
2022/01/19 00:44:47;;;;;;;4.63;2.03;;;;;;;-1.77;51.73;97665.63;5113429;28;20481;-62
2022/01/19 00:47:14;;;;;;;6.07;2.25;;;;;;;-1.83;52.37;97670.56;5113506;28;20031;-62
2022/01/19 00:49:43;;;;;;;5.75;1.85;;;;;;;-1.78;52.07;97672.44;5113434;28;20116;-62
2022/01/19 00:52:10;;;;;;;5.90;2.42;;;;;;;-1.78;52.09;97658.72;5113447;28;20055;-62
2022/01/19 00:54:36;;;;;;;6.10;2.03;;;;;;;-1.82;52.75;97667.16;5113381;28;20107;-63
2022/01/19 00:57:02;;;;;;;7.68;2.38;;;;;;;-1.92;51.96;97676.28;5113515;28;20016;-63
2022/01/19 00:59:27;;;;;;;6.10;2.13;;;;;;;-1.88;52.29;97656.72;5113331;28;20016;-63
2022/01/19 01:01:53;;;;;;;5.82;2.42;;;;;;;-1.80;52.47;97665.53;5113372;28;20048;-62
2022/01/19 01:04:19;;;;;;;5.07;2.08;;;;;;;-1.80;52.54;97670.66;5113238;28;20489;-63
2022/01/19 01:06:53;;;;;;;4.72;2.17;;;;;;;-1.84;52.62;97667.13;5116503;28;20055;-62
2022/01/19 01:09:19;;;;;;;3.42;1.88;;;;;;;-1.91;52.63;97663.50;5117342;28;20031;-63
2022/01/19 01:20:07;;;;;;;4.18;1.95;;;;;;;-1.86;52.79;97662.78;5095339;28;20130;-63
2022/01/19 01:22:33;;;;;;;5.45;1.67;;;;;;;-1.96;53.16;97671.91;5117217;28;20112;-61
2022/01/19 01:24:59;;;;;;;8.40;2.00;;;;;;;-1.96;52.98;97667.63;5117065;28;20484;-62
2022/01/19 01:27:25;;;;;;;4.90;2.33;;;;;;;-2.06;52.53;97660.47;5116992;28;20012;-62
2022/01/19 01:29:50;;;;;;;10.35;2.38;;;;;;;-2.00;52.83;97664.91;5117005;28;20024;-62
2022/01/19 01:32:16;;;;;;;7.72;2.50;;;;;;;-1.98;52.53;97664.16;5116816;28;20382;-62
2022/01/19 01:34:42;;;;;;;5.95;2.35;;;;;;;-1.92;52.90;97660.91;5116799;28;20035;-62
2022/01/19 01:37:07;;;;;;;6.50;2.83;;;;;;;-1.88;52.11;97665.28;5116913;27;20028;-62
2022/01/19 01:39:33;;;;;;;5.00;2.50;;;;;;;-1.96;53.21;97667.63;5116802;28;20166;-62
2022/01/19 01:41:59;;;;;;;6.18;2.17;;;;;;;-2.01;53.06;97670.88;5116823;28;20039;-62
2022/01/19 01:44:24;;;;;;;10.90;2.42;;;;;;;-1.99;52.57;97670.09;5116657;28;20024;-61
2022/01/19 01:46:55;;;;;;;6.53;2.38;;;;;;;-1.98;52.65;97676.09;5116618;28;20022;-63
2022/01/19 01:49:45;;;;;;;;;;;;;;;-1.97;52.74;97667.56;5117122;28;20476;-62
2022/01/19 01:54:56;;;;;;;4.70;2.15;;;;;;;-2.04;53.04;97664.81;5116656;28;20054;-61
2022/01/19 01:57:22;;;;;;;4.60;2.33;;;;;;;-2.04;53.25;97663.97;5116401;28;20485;-62
2022/01/19 01:59:47;;;;;;;6.43;2.63;;;;;;;-2.06;52.93;97669.06;5116367;28;20024;-61
2022/01/19 02:02:14;;;;;;;5.95;2.38;;;;;;;-2.12;52.49;97660.28;5116407;28;20118;-62
2022/01/19 02:04:41;;;;;;;7.70;2.65;;;;;;;-2.09;52.68;97651.00;5116377;28;20477;-61
2022/01/19 02:09:47;;;;;;;5.07;2.25;;;;;;;-2.00;52.41;97639.25;5116328;28;20035;-62
2022/01/19 02:23:27;;;;;;;12.32;3.10;;;;;;;-2.19;52.33;97638.72;5116348;28;20116;-62
2022/01/19 02:25:59;;;;;;;4.82;2.20;;;;;;;-2.24;52.17;97635.13;5116140;28;20039;-62
2022/01/19 02:36:38;;;;;;;3.35;1.90;;;;;;;-2.24;51.87;97635.13;5115723;28;20500;-62
2022/01/19 02:41:52;;;;;;;6.22;2.28;;;;;;;-2.34;51.56;97639.13;5115906;28;20132;-62
2022/01/19 02:49:49;;;;;;;5.25;1.95;;;;;;;-2.34;51.98;97650.28;5115637;28;20027;-62
2022/01/19 02:52:17;;;;;;;4.55;1.50;;;;;;;-2.28;52.33;97645.31;5115387;27;20465;-62
2022/01/19 02:54:43;;;;;;;6.03;2.17;;;;;;;-2.27;53.54;97643.63;5115270;28;20016;-62
2022/01/19 02:57:11;;;;;;;4.95;1.98;;;;;;;-2.32;52.96;97653.72;5115344;28;20032;-62
2022/01/19 03:10:28;;;;;;;6.65;2.22;;;;;;;-2.95;53.81;97647.47;5115340;28;20070;-61
2022/01/19 03:12:54;;;;;;;6.28;1.70;;;;;;;-3.02;54.04;97653.19;5114975;28;20044;-62
2022/01/19 03:15:20;;;;;;;3.55;2.03;;;;;;;-3.14;54.91;97661.31;5114856;28;20491;-63
2022/01/19 03:17:46;;;;;;;5.93;2.00;;;;;;;-3.13;55.22;97660.53;5114940;28;20023;-62
2022/01/19 03:20:12;;;;;;;3.72;2.00;;;;;;;-3.12;55.29;97655.44;5114603;28;20083;-62
2022/01/19 03:22:45;;;;;;;3.58;1.63;;;;;;;-3.16;55.18;97661.28;5114765;28;20039;-62
2022/01/19 03:25:13;;;;;;;3.40;1.88;;;;;;;-3.13;55.52;97652.84;5114727;28;20027;-62
2022/01/19 03:27:40;;;;;;;3.72;1.50;;;;;;;-3.17;55.76;97664.66;5114620;28;20028;-62
2022/01/19 03:30:07;;;;;;;6.30;1.95;;;;;;;-3.26;55.78;97667.75;5114418;28;20035;-62
2022/01/19 03:32:33;;;;;;;3.92;1.75;;;;;;;-3.39;56.41;97665.59;5114634;28;20016;-62
2022/01/19 03:35:00;;;;;;;4.00;2.00;;;;;;;-3.44;56.15;97671.44;5114508;28;20080;-61
2022/01/19 03:37:25;;;;;;;5.03;2.28;;;;;;;-3.45;56.86;97679.94;5114440;28;20024;-62
2022/01/19 03:39:51;;;;;;;3.55;1.70;;;;;;;-3.46;57.28;97673.03;5114536;28;20020;-62
2022/01/19 03:42:16;;;;;;;4.35;2.08;;;;;;;-3.63;57.02;97672.44;5114340;28;20031;-62
2022/01/19 03:44:43;;;;;;;3.22;1.80;;;;;;;-3.83;57.88;97677.69;5114334;28;20161;-62
2022/01/19 03:47:08;;;;;;;4.65;1.70;;;;;;;-3.88;57.73;97676.69;5114325;28;20388;-62
2022/01/19 03:49:34;;;;;;;6.55;1.80;;;;;;;-3.94;57.92;97687.53;5114301;28;20026;-62
2022/01/19 03:52:02;;;;;;;3.47;1.67;;;;;;;-4.03;58.20;97681.19;5114259;28;20053;-62
2022/01/19 03:54:34;;;;;;;3.42;1.80;;;;;;;-4.11;58.35;97683.47;5114074;28;20039;-62
2022/01/19 03:57:00;;;;;;;3.75;1.70;;;;;;;-4.13;58.95;97680.84;5114190;28;20062;-62
2022/01/19 03:59:26;;;;;;;3.42;1.70;;;;;;;-4.29;59.45;97687.03;5114036;28;20031;-62
2022/01/19 04:01:52;;;;;;;4.70;1.95;;;;;;;-4.37;59.49;97680.78;5114234;28;20023;-62
2022/01/19 04:09:18;;;;;;;6.15;3.60;;;;;;;-4.53;59.89;97677.59;5114006;28;20473;-62
2022/01/19 04:11:43;;;;;;;3.78;2.38;;;;;;;-4.68;59.98;97682.97;5113854;28;20019;-61
2022/01/19 04:16:34;;;;;;;3.60;1.60;;;;;;;-4.89;61.22;97686.38;5113766;28;20027;-62
2022/01/19 04:21:44;;;;;;;4.18;1.73;;;;;;;-4.93;60.89;97691.28;5113869;28;20537;-62
2022/01/19 04:24:09;;;;;;;3.30;1.40;;;;;;;-5.03;60.96;97684.94;5113627;28;20016;-61
2022/01/19 04:26:35;;;;;;;6.45;2.15;;;;;;;-5.16;61.41;97694.63;5113808;28;20047;-61
2022/01/19 04:29:00;;;;;;;8.60;1.80;;;;;;;-5.18;61.17;97703.88;5113687;28;20028;-62
2022/01/19 04:31:26;;;;;;;7.18;2.25;;;;;;;-5.10;61.51;97699.09;5113654;28;20061;-62
2022/01/19 04:33:51;;;;;;;4.25;1.73;;;;;;;-5.08;61.96;97708.56;5113593;28;20020;-62
2022/01/19 05:02:39;;;;;;;3.90;2.08;;;;;;;-5.94;63.81;97743.91;5113402;28;20031;-61
2022/01/19 05:05:14;;;;;;;6.05;2.25;;;;;;;-5.89;63.91;97745.88;5113183;28;20024;-61
2022/01/19 05:07:53;;;;;;;3.60;1.80;;;;;;;-5.95;64.34;97745.56;5113202;28;20031;-61
2022/01/19 05:15:47;;;;;;;4.20;2.17;;;;;;;-6.04;64.48;97753.69;5112336;28;20035;-61
2022/01/19 05:18:13;;;;;;;3.83;1.83;;;;;;;-6.03;64.29;97757.06;5112827;28;20019;-62
2022/01/19 05:20:38;;;;;;;4.35;2.40;;;;;;;-6.09;64.49;97758.56;5113122;28;20059;-62
2022/01/19 05:23:04;;;;;;;4.43;2.08;;;;;;;-6.06;64.82;97772.28;5113120;28;20097;-61
2022/01/19 05:25:30;;;;;;;3.15;1.80;;;;;;;-6.11;64.99;97762.72;5113215;28;20023;-62
2022/01/19 05:27:55;;;;;;;4.88;2.00;;;;;;;-6.10;64.88;97761.94;5113127;28;20020;-61
2022/01/19 05:30:21;;;;;;;7.40;2.38;;;;;;;-6.13;64.66;97766.88;5113033;28;20107;-62
2022/01/19 05:32:47;;;;;;;4.45;2.03;;;;;;;-6.15;64.94;97776.13;5113020;28;20056;-61
2022/01/19 05:35:14;;;;;;;2.63;2.10;;;;;;;-6.13;64.98;97766.88;5112978;28;20088;-62
2022/01/19 05:37:40;;;;;;;4.13;2.15;;;;;;;-6.11;65.38;97767.81;5113065;28;20028;-62
2022/01/19 05:40:08;;;;;;;5.30;2.30;;;;;;;-6.16;65.85;97782.03;5113100;28;20012;-62
2022/01/19 05:42:35;;;;;;;3.85;1.88;;;;;;;-6.09;66.05;97772.97;5113054;28;20019;-62
2022/01/19 05:45:02;;;;;;;4.90;2.05;;;;;;;-6.02;65.85;97782.63;5113032;28;20023;-61
2022/01/19 05:47:27;;;;;;;7.38;2.17;;;;;;;-6.03;65.46;97783.44;5112970;28;20023;-61
2022/01/19 05:49:53;;;;;;;5.63;2.17;;;;;;;-6.01;65.75;97783.50;5112906;28;20016;-62
2022/01/19 05:52:19;;;;;;;4.45;1.90;;;;;;;-5.96;65.61;97785.47;5115192;28;20035;-62
2022/01/19 05:54:46;;;;;;;3.58;2.13;;;;;;;-5.90;65.74;97787.44;5116351;28;20030;-62
2022/01/19 05:57:12;;;;;;;8.95;2.45;;;;;;;-5.87;65.19;97797.78;5116498;28;20027;-62
2022/01/19 05:59:37;;;;;;;3.95;2.30;;;;;;;-5.89;65.31;97788.31;5116350;28;20020;-63
2022/01/19 06:02:04;;;;;;;8.20;2.60;;;;;;;-5.88;65.59;97784.97;5116478;28;20031;-62
2022/01/19 06:04:30;;;;;;;5.80;2.00;;;;;;;-5.81;65.29;97792.09;5116348;28;20023;-63
2022/01/19 06:06:57;;;;;;;8.65;2.22;;;;;;;-5.80;65.17;97790.41;5116258;28;20037;-61
2022/01/19 06:12:05;;;;;;;3.88;2.00;;;;;;;-5.72;64.93;97789.97;5116202;28;20027;-62
2022/01/19 06:14:36;;;;;;;10.13;2.15;;;;;;;-5.68;64.78;97791.00;5116120;28;20111;-62
2022/01/19 06:17:03;;;;;;;4.82;2.22;;;;;;;-5.69;64.89;97785.81;5116071;28;20027;-63
2022/01/19 06:19:29;;;;;;;5.03;2.13;;;;;;;-5.68;64.73;97791.00;5115768;27;20035;-63
2022/01/19 06:21:55;;;;;;;2.90;1.88;;;;;;;-5.35;65.32;97793.34;5116042;28;20034;-63
2022/01/19 06:24:21;;;;;;;3.95;1.90;;;;;;;-3.72;61.35;97792.34;5116075;28;20095;-63
2022/01/19 06:26:47;;;;;;;3.97;2.00;;;;;;;-1.72;55.79;97805.19;5116015;28;20451;-63
2022/01/19 06:29:13;;;;;;;3.13;1.58;;;;;;;0.16;51.22;97803.41;5115759;28;20023;-63
2022/01/19 06:31:39;;;;;;;3.70;1.92;;;;;;;2.00;45.51;97801.00;5115786;28;20369;-62
2022/01/19 06:34:05;;;;;;;3.95;1.58;;;;;;;3.82;41.68;97804.16;5115785;28;20019;-64
2022/01/19 06:36:30;;;;;;;2.67;1.77;;;;;;;5.28;38.11;97805.06;5115690;28;20030;-64
2022/01/19 06:38:57;;;;;;;3.92;1.90;;;;;;;6.44;35.53;97795.69;5115680;28;20094;-64
2022/01/19 06:41:23;;;;;;;5.60;1.77;;;;;;;7.46;33.98;97795.34;5115526;28;20023;-65
2022/01/19 06:43:49;;;;;;;6.10;2.55;;;;;;;8.58;31.84;97796.31;5115548;28;20496;-63
2022/01/19 06:46:14;;;;;;;5.00;1.92;;;;;;;9.26;29.99;97799.00;5115539;28;20039;-66
2022/01/19 06:48:40;;;;;;;3.08;2.05;;;;;;;10.04;29.09;97790.97;5115591;28;20024;-65
2022/01/19 06:51:06;;;;;;;7.63;2.25;;;;;;;10.81;27.89;97798.38;5115545;28;20034;-63
2022/01/19 06:53:31;;;;;;;2.53;1.80;;;;;;;11.24;27.23;97795.81;5115486;28;20038;-63
2022/01/19 06:55:57;;;;;;;6.80;2.28;;;;;;;11.97;26.65;97798.59;5115229;28;20038;-66
2022/01/19 06:58:28;;;;;;;5.07;2.10;;;;;;;12.93;25.57;97792.72;5115299;28;20380;-65
2022/01/19 07:00:55;;;;;;;5.00;2.42;;;;;;;13.50;23.42;97794.63;5115213;28;20030;-67
2022/01/19 07:03:21;;;;;;;4.13;2.63;;;;;;;13.50;22.03;97789.38;5114598;28;20059;-67
2022/01/19 07:05:47;;;;;;;6.15;2.20;;;;;;;14.27;22.82;97785.25;5115155;28;20043;-66
2022/01/19 07:08:13;;;;;;;4.63;2.28;;;;;;;15.30;22.88;97781.69;5115049;28;20019;-65
2022/01/19 07:10:38;;;;;;;7.40;2.78;;;;;;;15.37;20.98;97787.59;5115103;28;20099;-66
2022/01/19 07:13:05;;;;;;;4.45;2.55;;;;;;;14.15;22.06;97795.25;5114973;28;20062;-65
2022/01/19 07:15:30;;;;;;;4.65;2.80;;;;;;;14.52;21.76;97795.81;5115004;28;20047;-65
2022/01/19 07:17:56;;;;;;;8.00;4.72;;;;;;;15.54;20.61;97785.16;5114926;28;20031;-67
2022/01/19 07:20:22;;;;;;;4.97;3.90;;;;;;;16.64;19.59;97792.25;5114640;28;20058;-63
2022/01/19 07:22:48;;;;;;;6.57;4.32;;;;;;;17.01;18.42;97783.66;5114732;28;20102;-63
2022/01/19 07:25:14;;;;;;;5.60;3.10;;;;;;;16.35;19.27;97797.00;5114871;28;20422;-66
2022/01/19 07:27:40;;;;;;;4.80;2.63;;;;;;;15.91;19.40;97801.34;5114823;28;20051;-65
2022/01/19 07:30:07;;;;;;;7.47;3.58;;;;;;;15.75;19.35;97802.88;5114750;28;20412;-66
2022/01/19 07:32:35;;;;;;;6.03;3.72;;;;;;;15.69;19.47;97808.38;5114527;28;20067;-65
2022/01/19 07:35:03;;;;;;;4.13;2.53;;;;;;;15.51;19.59;97797.63;5114374;28;20027;-66
2022/01/19 07:37:29;;;;;;;4.90;2.67;;;;;;;14.25;20.74;97800.22;5114501;28;20020;-62
2022/01/19 07:39:54;;;;;;;4.22;3.05;;;;;;;14.57;20.15;97800.91;5114422;28;20496;-64
2022/01/19 07:42:20;;;;;;;4.43;3.10;;;;;;;14.03;21.20;97783.34;5114379;28;20019;-62
2022/01/19 07:44:46;;;;;;;5.22;2.50;;;;;;;14.95;20.88;97787.34;5114385;28;20031;-65
2022/01/19 07:47:11;;;;;;;5.20;3.10;;;;;;;14.55;20.52;97796.59;5114316;28;20385;-66
2022/01/19 07:49:37;;;;;;;6.13;3.25;;;;;;;15.41;19.94;97790.06;5114242;28;20107;-65
2022/01/19 07:52:03;;;;;;;5.10;2.78;;;;;;;15.05;19.57;97792.28;5114270;28;20035;-62
2022/01/19 07:54:29;;;;;;;5.45;2.80;;;;;;;14.44;20.30;97789.94;5114298;28;20526;-62
2022/01/19 07:56:54;;;;;;;3.63;2.45;;;;;;;14.44;20.70;97786.44;5114036;28;20039;-63
2022/01/19 07:59:20;;;;;;;4.82;2.85;;;;;;;14.01;20.77;97773.81;5114023;28;20024;-64
2022/01/19 08:01:46;;;;;;;3.85;2.13;;;;;;;14.63;20.32;97774.38;5114153;28;20047;-64
2022/01/19 08:04:12;;;;;;;4.57;2.53;;;;;;;14.99;19.96;97770.50;5114157;28;20356;-64
2022/01/19 08:06:38;;;;;;;5.47;2.70;;;;;;;15.36;19.61;97770.94;5114088;28;20035;-66
2022/01/19 08:09:04;;;;;;;4.18;2.20;;;;;;;15.00;19.49;97768.75;5113937;28;20015;-66
2022/01/19 08:11:31;;;;;;;5.55;2.33;;;;;;;14.31;20.33;97778.09;5113932;28;20389;-65
2022/01/19 08:13:57;;;;;;;3.92;2.33;;;;;;;14.47;19.90;97786.34;5113921;28;20473;-65
2022/01/19 08:16:22;;;;;;;3.85;2.50;;;;;;;14.79;19.70;97779.13;5111847;28;20034;-65
2022/01/19 08:18:48;;;;;;;4.07;2.50;;;;;;;14.02;20.21;97781.66;5113686;28;20043;-63
2022/01/19 08:21:14;;;;;;;4.20;2.22;;;;;;;13.99;21.59;97775.59;5113855;28;20495;-62
2022/01/19 08:23:40;;;;;;;3.85;2.55;;;;;;;14.60;20.61;97786.78;5113637;28;20039;-65
2022/01/19 08:26:05;;;;;;;5.60;2.50;;;;;;;15.19;20.00;97781.22;5113731;28;20396;-67
2022/01/19 08:28:32;;;;;;;3.47;2.33;;;;;;;15.41;19.49;97779.50;5113724;28;20015;-65
2022/01/19 08:30:57;;;;;;;4.70;2.47;;;;;;;13.76;20.93;97788.59;5113701;28;20465;-67
2022/01/19 08:33:23;;;;;;;6.85;2.67;;;;;;;13.20;21.84;97797.22;5113648;28;20058;-64
2022/01/19 08:35:49;;;;;;;3.63;2.05;;;;;;;13.02;21.32;97788.97;5113620;28;20027;-61
2022/01/19 08:38:14;;;;;;;3.63;2.47;;;;;;;13.20;21.85;97799.84;5113596;28;20461;-64
2022/01/19 08:40:41;;;;;;;6.40;2.10;;;;;;;13.71;20.82;97801.03;5113618;28;20024;-64
2022/01/19 08:43:06;;;;;;;5.38;2.35;;;;;;;13.99;20.00;97794.03;5113586;28;20385;-62
2022/01/19 08:45:33;;;;;;;4.03;2.33;;;;;;;12.89;20.76;97780.56;5113507;28;20027;-62
2022/01/19 08:47:59;;;;;;;4.40;2.42;;;;;;;12.65;21.94;97785.59;5113364;28;20028;-64
2022/01/19 08:50:25;;;;;;;3.92;1.90;;;;;;;11.25;22.67;97780.06;5113339;28;20081;-63
2022/01/19 08:52:51;;;;;;;6.78;2.60;;;;;;;11.06;23.35;97776.97;5113442;28;20024;-63
2022/01/19 08:55:17;;;;;;;5.55;2.35;;;;;;;10.70;23.55;97776.78;5113368;28;20051;-63
2022/01/19 08:57:45;;;;;;;5.65;2.40;;;;;;;9.93;24.65;97788.50;5113419;28;20016;-64
2022/01/19 09:00:13;;;;;;;3.47;1.98;;;;;;;9.25;25.41;97782.50;5113386;28;20023;-63
2022/01/19 09:02:39;;;;;;;5.18;2.55;;;;;;;8.63;27.54;97784.06;5113449;28;20015;-62
2022/01/19 09:05:06;;;;;;;4.05;2.40;;;;;;;8.55;26.94;97775.47;5112147;28;20104;-62
2022/01/19 09:07:32;;;;;;;5.22;2.53;;;;;;;8.02;28.04;97778.50;5113457;28;20023;-62
2022/01/19 09:09:58;;;;;;;3.60;2.22;;;;;;;7.85;28.40;97782.09;5113316;28;20024;-63
2022/01/19 09:12:27;;;;;;;2.40;1.77;;;;;;;7.03;28.44;97778.19;5113225;28;20043;-64
2022/01/19 09:14:53;;;;;;;3.05;1.45;;;;;;;6.28;29.41;97779.25;5113248;28;20034;-64
2022/01/19 09:17:18;;;;;;;3.75;2.30;;;;;;;5.77;31.47;97780.09;5113193;28;20023;-65
2022/01/19 09:19:44;;;;;;;4.55;1.98;;;;;;;5.63;32.60;97774.84;5113061;28;20036;-62
2022/01/19 09:22:10;;;;;;;9.77;1.80;;;;;;;5.52;31.87;97773.97;5113287;28;20036;-63
2022/01/19 09:24:42;;;;;;;2.80;1.88;;;;;;;5.42;32.08;97770.50;5113162;28;20031;-63
2022/01/19 09:27:09;;;;;;;4.85;1.95;;;;;;;5.01;32.26;97767.78;5115184;28;20019;-64
2022/01/19 09:29:42;;;;;;;3.53;1.75;;;;;;;5.08;33.51;97767.81;5117170;28;20023;-63
2022/01/19 09:32:11;;;;;;;3.22;1.70;;;;;;;5.12;32.93;97772.16;5117003;28;20038;-65
2022/01/19 09:34:43;;;;;;;3.85;1.88;;;;;;;5.03;32.81;97765.22;5116896;28;20019;-64
2022/01/19 09:37:09;;;;;;;4.10;1.92;;;;;;;5.11;32.94;97760.03;5116856;28;20088;-65
2022/01/19 09:39:35;;;;;;;2.33;1.80;;;;;;;5.17;32.07;97760.03;5116880;28;20019;-64
2022/01/19 09:42:01;;;;;;;4.88;1.98;;;;;;;5.22;32.32;97763.53;5116878;28;20016;-64
2022/01/19 09:44:31;;;;;;;3.50;2.00;;;;;;;5.25;33.31;97755.75;5116843;28;20042;-64
2022/01/19 09:46:57;;;;;;;3.95;2.20;;;;;;;5.25;31.63;97754.88;5116865;28;20042;-63
2022/01/19 09:49:23;;;;;;;5.53;1.70;;;;;;;5.15;32.26;97749.66;5116688;28;20495;-64
2022/01/19 09:51:51;;;;;;;3.70;2.22;;;;;;;5.20;32.62;97743.66;5116538;28;20028;-63
2022/01/19 09:54:20;;;;;;;4.60;2.50;;;;;;;5.24;32.58;97742.78;5116665;28;20015;-64
2022/01/19 09:56:47;;;;;;;3.30;2.00;;;;;;;5.12;31.96;97741.03;5116380;28;20076;-65
2022/01/19 09:59:14;;;;;;;3.17;1.90;;;;;;;4.97;31.29;97734.91;5116597;28;20027;-63
2022/01/19 10:01:48;;;;;;;5.32;2.05;;;;;;;4.72;33.30;97728.78;5116326;28;20023;-64
2022/01/19 10:04:19;;;;;;;4.32;1.77;;;;;;;4.53;31.96;97719.19;5116430;28;20407;-64
2022/01/19 10:06:45;;;;;;;4.00;1.58;;;;;;;4.53;32.13;97733.84;5116563;28;20030;-64
2022/01/19 10:09:10;;;;;;;5.95;2.40;;;;;;;4.55;32.71;97727.81;5116261;28;20019;-61
2022/01/19 10:17:03;;;;;;;4.10;1.80;;;;;;;4.85;32.83;97711.53;5116661;28;20092;-63
2022/01/19 10:19:41;;;;;;;2.03;1.70;;;;;;;4.62;33.09;97712.28;5115965;28;20055;-63
2022/01/19 10:22:19;;;;;;;3.58;1.95;;;;;;;4.73;33.39;97708.00;5116309;28;20035;-64
2022/01/19 10:25:00;;;;;;;4.40;2.03;;;;;;;4.61;33.17;97710.56;5116307;28;20028;-64
2022/01/19 10:27:38;;;;;;;2.50;1.58;;;;;;;4.74;31.75;97699.41;5116079;28;20093;-63
2022/01/19 10:30:04;;;;;;;5.40;2.08;;;;;;;4.80;32.96;97706.31;5116206;28;20058;-63
2022/01/19 10:32:52;;;;;;;2.85;1.75;;;;;;;4.91;32.85;97703.78;5116242;28;20389;-63
2022/01/19 10:35:31;;;;;;;2.40;1.42;;;;;;;4.91;32.12;97694.25;5116064;28;20051;-64
2022/01/19 10:38:09;;;;;;;2.55;1.30;;;;;;;4.73;32.79;97686.44;5115042;28;20351;-63
2022/01/19 10:40:36;;;;;;;4.30;1.73;;;;;;;4.49;31.64;97675.94;5115841;28;20389;-63
2022/01/19 10:43:35;;;;;;;4.63;1.40;;;;;;;4.36;32.21;97667.25;5115872;28;20072;-62
2022/01/19 10:46:21;;;;;;;2.25;1.63;;;;;;;4.26;33.54;97671.53;5115984;28;20032;-62
2022/01/19 10:48:47;;;;;;;7.00;2.35;;;;;;;4.45;36.63;97671.63;5115623;28;20378;-63
2022/01/19 10:51:13;;;;;;;4.68;1.70;;;;;;;4.54;34.47;97665.59;5115674;28;20389;-63
2022/01/19 10:53:41;;;;;;;4.32;1.58;;;;;;;4.59;33.92;97660.44;5115556;28;20020;-63
2022/01/19 10:56:31;;;;;;;2.95;1.67;;;;;;;4.60;33.57;97646.63;5115343;28;20027;-63
2022/01/19 10:58:59;;;;;;;2.85;1.75;;;;;;;4.52;31.73;97647.44;5115439;28;20022;-62
2022/01/19 11:01:39;;;;;;;3.00;1.52;;;;;;;4.23;33.62;97644.72;5115282;28;20030;-63
2022/01/19 11:04:23;;;;;;;2.95;1.27;;;;;;;4.45;33.41;97640.50;5115199;28;20358;-62
2022/01/19 11:06:51;;;;;;;3.67;1.83;;;;;;;4.58;33.75;97635.38;5115078;28;20031;-62
2022/01/19 11:09:22;;;;;;;3.05;1.70;;;;;;;4.52;33.40;97642.25;5115339;28;20023;-61
2022/01/19 11:11:48;;;;;;;3.05;1.70;;;;;;;4.56;31.05;97640.56;5114098;28;20043;-62
2022/01/19 11:14:15;;;;;;;2.90;1.88;;;;;;;4.48;31.95;97622.38;5114997;28;20020;-63
2022/01/19 11:16:42;;;;;;;3.63;1.42;;;;;;;4.46;32.69;97628.44;5114914;28;20051;-62
2022/01/19 11:19:09;;;;;;;3.20;1.30;;;;;;;4.48;32.41;97631.91;5115014;28;20446;-63
2022/01/19 11:21:46;;;;;;;3.00;1.60;;;;;;;4.50;32.43;97635.34;5113903;28;20119;-63
2022/01/19 11:24:24;;;;;;;3.35;1.42;;;;;;;4.48;31.39;97634.50;5114935;28;20039;-63
2022/01/19 11:26:53;;;;;;;4.10;1.73;;;;;;;4.39;31.08;97627.53;5114829;28;20027;-63
2022/01/19 11:29:21;;;;;;;3.92;1.55;;;;;;;4.30;31.02;97620.59;5114805;28;20109;-62
2022/01/19 11:31:49;;;;;;;3.45;1.70;;;;;;;4.22;34.84;97599.84;5114883;28;20011;-63
2022/01/19 11:34:35;;;;;;;11.23;5.45;;;;;;;4.14;34.04;97604.13;5114993;28;20045;-63
2022/01/19 11:37:02;;;;;;;4.40;1.70;;;;;;;4.29;31.98;97608.50;5114580;28;20027;-63
2022/01/19 11:39:30;;;;;;;6.40;2.70;;;;;;;4.17;32.62;97605.00;5114529;28;20047;-63
2022/01/19 11:42:01;;;;;;;6.57;3.20;;;;;;;4.19;35.04;97614.50;5114361;28;20114;-63
2022/01/19 11:44:36;;;;;;;3.75;2.28;;;;;;;4.29;34.80;97605.91;5114466;28;20023;-63
2022/01/19 11:47:15;;;;;;;4.53;2.47;;;;;;;4.45;35.23;97611.16;5114551;28;20051;-63
2022/01/19 11:49:45;;;;;;;5.32;2.40;;;;;;;4.57;34.37;97603.41;5114211;28;20097;-62
2022/01/19 11:52:11;;;;;;;3.55;1.98;;;;;;;4.61;33.30;97592.19;5114538;28;20031;-63
2022/01/19 11:54:37;;;;;;;3.70;1.70;;;;;;;4.62;34.23;97582.69;5114580;28;20489;-62
2022/01/19 11:57:18;;;;;;;6.32;2.20;;;;;;;4.71;34.03;97577.53;5114263;28;20034;-63
2022/01/19 11:59:46;;;;;;;6.43;2.15;;;;;;;4.61;36.29;97580.97;5114277;28;20024;-63
2022/01/19 12:02:21;;;;;;;5.53;2.22;;;;;;;4.51;37.12;97583.53;5114451;28;20036;-62
2022/01/19 12:04:59;;;;;;;4.63;2.13;;;;;;;4.47;36.07;97580.91;5113966;28;20034;-62
2022/01/19 12:08:00;;;;;;;3.05;1.85;;;;;;;4.48;34.38;97580.09;5114123;28;20024;-63
2022/01/19 12:10:30;;;;;;;4.03;2.28;;;;;;;4.41;34.15;97569.69;5110177;28;20047;-63
2022/01/19 12:13:25;;;;;;;3.42;1.75;;;;;;;4.38;35.04;97567.09;5113878;28;20446;-63
2022/01/19 12:15:57;;;;;;;2.75;1.77;;;;;;;4.32;35.90;97564.47;5113949;28;20069;-62
2022/01/19 12:18:44;;;;;;;3.90;2.28;;;;;;;4.40;35.80;97551.53;5113669;28;20046;-63
2022/01/19 12:21:12;;;;;;;4.07;2.28;;;;;;;4.47;35.22;97550.69;5113949;27;20084;-63
2022/01/19 12:23:40;;;;;;;2.80;1.88;;;;;;;4.61;35.82;97552.47;5114010;28;20047;-62
2022/01/19 12:26:09;;;;;;;6.50;2.20;;;;;;;4.69;35.14;97548.13;5113859;28;20019;-62
2022/01/19 12:28:40;;;;;;;3.15;1.80;;;;;;;4.58;36.65;97545.56;5113592;28;20032;-63
2022/01/19 12:31:24;;;;;;;4.03;1.80;;;;;;;4.52;35.47;97541.19;5113781;28;20023;-62
2022/01/19 12:34:08;;;;;;;2.70;1.90;;;;;;;4.46;35.63;97537.72;5113886;28;20153;-63
2022/01/19 12:36:47;;;;;;;6.40;2.35;;;;;;;4.44;35.94;97542.91;5113606;28;20023;-63
2022/01/19 12:39:24;;;;;;;2.78;1.80;;;;;;;4.47;35.61;97536.88;5113599;28;20056;-63
2022/01/19 12:42:04;;;;;;;4.53;2.10;;;;;;;4.39;35.56;97542.03;5113600;28;20020;-62
2022/01/19 12:44:52;;;;;;;4.72;1.90;;;;;;;4.38;35.61;97553.25;5113704;28;20369;-63
2022/01/19 12:49:54;;;;;;;4.10;1.73;;;;;;;4.41;35.14;97548.09;5113553;28;20023;-63
2022/01/19 12:52:22;;;;;;;4.05;1.85;;;;;;;4.47;35.34;97534.28;5113772;28;20103;-64
2022/01/19 12:54:49;;;;;;;3.40;1.58;;;;;;;4.39;35.69;97535.13;5113319;28;20073;-63
2022/01/19 12:57:15;;;;;;;6.30;1.98;;;;;;;4.41;35.34;97541.19;5113578;28;20393;-63
2022/01/19 12:59:47;;;;;;;3.17;1.73;;;;;;;4.43;35.66;97536.00;5113456;28;20020;-62
2022/01/19 13:02:15;;;;;;;4.45;1.58;;;;;;;4.46;36.59;97523.06;5115806;28;20080;-62
2022/01/19 13:04:46;;;;;;;6.35;2.50;;;;;;;4.55;35.53;97523.06;5117642;28;20020;-63
2022/01/19 13:07:26;;;;;;;4.85;2.13;;;;;;;4.43;35.25;97518.72;5117656;28;20076;-61
2022/01/19 13:10:04;;;;;;;4.80;2.20;;;;;;;4.45;35.83;97518.72;5117717;28;20131;-62
2022/01/19 13:12:44;;;;;;;4.18;1.88;;;;;;;4.37;35.44;97515.25;5117639;28;20016;-63
2022/01/19 13:15:11;;;;;;;3.65;2.00;;;;;;;4.35;34.83;97515.25;5117302;28;20027;-63
2022/01/19 13:17:46;;;;;;;4.43;1.83;;;;;;;4.37;35.56;97508.34;5117347;28;20024;-62
2022/01/19 13:20:15;;;;;;;5.90;2.65;;;;;;;4.30;35.47;97504.00;5117213;28;20043;-61
2022/01/19 13:22:52;;;;;;;4.28;1.83;;;;;;;4.23;35.32;97502.25;5117397;28;20373;-64
2022/01/19 13:25:23;;;;;;;3.20;1.85;;;;;;;4.20;35.59;97494.47;5117287;28;20474;-63
2022/01/19 13:27:50;;;;;;;4.32;2.35;;;;;;;4.22;36.56;97496.22;5117210;28;20020;-63